createdAt,value
2018-10-18T00:02:23.830Z,82.84
2018-10-18T00:07:18.572Z,83.51
2018-10-18T00:12:15.245Z,84.10
2018-10-18T00:17:14.261Z,84.25
2018-10-18T00:22:13.640Z,84.13
2018-10-18T00:27:11.046Z,83.72
2018-10-18T00:32:06.082Z,83.97
2018-10-18T00:47:06.159Z,85.71
2018-10-18T00:52:02.197Z,83.80
2018-10-18T00:56:58.643Z,83.20
2018-10-18T01:01:53.340Z,82.47
2018-10-18T01:06:50.113Z,82.88
2018-10-18T01:11:45.447Z,81.87
2018-10-18T01:16:41.717Z,81.15
2018-10-18T01:21:36.905Z,80.15
2018-10-18T01:26:31.652Z,78.52
2018-10-18T01:31:25.893Z,78.53
2018-10-18T01:36:21.449Z,79.76
2018-10-18T01:41:17.379Z,79.74
2018-10-18T01:46:18.037Z,79.93
2018-10-18T01:51:14.323Z,80.48
2018-10-18T01:56:08.727Z,80.41
2018-10-18T02:01:03.619Z,80.99
2018-10-18T02:05:59.685Z,80.85
2018-10-18T02:10:55.609Z,81.31
2018-10-18T02:15:48.905Z,81.59
2018-10-18T02:20:52.352Z,82.46
2018-10-18T02:25:49.397Z,82.53
2018-10-18T02:30:46.160Z,82.00
2018-10-18T02:35:44.179Z,82.89
2018-10-18T02:40:43.517Z,84.11
2018-10-18T02:45:41.308Z,84.37
2018-10-18T02:50:36.597Z,86.47
2018-10-18T02:55:31.822Z,87.18
2018-10-18T03:00:28.628Z,86.91
2018-10-18T03:10:25.386Z,83.03
2018-10-18T03:15:18.599Z,81.39
2018-10-18T03:20:17.756Z,81.34
2018-10-18T03:25:11.138Z,83.18
2018-10-18T03:30:04.784Z,83.32
2018-10-18T03:34:57.959Z,85.23
2018-10-18T03:39:51.183Z,87.37
2018-10-18T03:44:44.559Z,87.39
2018-10-18T03:49:37.954Z,86.79
2018-10-18T03:54:31.291Z,86.68
2018-10-18T03:59:24.545Z,87.12
2018-10-18T04:04:17.866Z,86.94
2018-10-18T04:09:11.048Z,87.87
2018-10-18T04:14:04.411Z,87.88
2018-10-18T04:18:57.768Z,88.64
2018-10-18T04:23:51.239Z,88.44
2018-10-18T04:28:44.615Z,88.31
2018-10-18T04:33:37.893Z,88.17
2018-10-18T04:38:31.124Z,88.10
2018-10-18T04:43:24.461Z,87.54
2018-10-18T04:48:19.963Z,86.28
2018-10-18T04:53:13.125Z,86.79
2018-10-18T04:58:06.549Z,86.53
2018-10-18T05:02:59.851Z,85.29
2018-10-18T05:07:53.085Z,83.85
2018-10-18T05:12:46.734Z,82.47
2018-10-18T05:17:39.976Z,82.30
2018-10-18T05:22:33.363Z,82.55
2018-10-18T05:27:26.776Z,82.74
2018-10-18T05:32:20.296Z,82.06
2018-10-18T05:37:13.629Z,82.27
2018-10-18T05:42:06.925Z,82.21
2018-10-18T05:47:00.147Z,81.63
2018-10-18T05:51:53.335Z,81.68
2018-10-18T05:56:46.648Z,81.00
2018-10-18T06:01:39.846Z,80.98
2018-10-18T06:06:33.185Z,81.34
2018-10-18T06:11:31.035Z,80.75
2018-10-18T06:16:25.452Z,80.14
2018-10-18T06:21:18.676Z,78.96
2018-10-18T06:26:12.109Z,78.34
2018-10-18T06:31:05.665Z,75.41
2018-10-18T06:35:59.068Z,73.60
2018-10-18T06:40:52.362Z,74.53
2018-10-18T06:45:45.677Z,74.07
2018-10-18T06:50:39.948Z,74.09
2018-10-18T06:55:33.157Z,73.30
2018-10-18T07:00:26.479Z,73.22
2018-10-18T07:05:19.759Z,73.03
2018-10-18T07:10:13.229Z,72.83
2018-10-18T07:15:07.543Z,73.06
2018-10-18T07:20:00.939Z,72.19
2018-10-18T07:24:54.184Z,70.16
2018-10-18T07:29:47.461Z,70.48
2018-10-18T07:34:40.720Z,69.42
2018-10-18T07:39:33.955Z,69.08
2018-10-18T07:44:27.729Z,67.53
2018-10-18T07:49:20.950Z,69.31
2018-10-18T07:54:14.215Z,68.42
2018-10-18T07:59:07.402Z,68.29
2018-10-18T08:04:00.704Z,68.13
2018-10-18T08:08:53.939Z,68.00
2018-10-18T08:13:47.245Z,69.00
2018-10-18T08:18:41.558Z,69.74
2018-10-18T08:23:34.889Z,69.02
2018-10-18T08:28:28.213Z,69.32
2018-10-18T08:33:22.591Z,68.39
2018-10-18T08:38:16.355Z,68.06
2018-10-18T08:43:09.597Z,69.31
2018-10-18T08:48:02.925Z,67.66
2018-10-18T08:52:56.108Z,68.35
2018-10-18T08:57:49.454Z,68.72
2018-10-18T09:02:42.985Z,68.82
2018-10-18T09:07:36.626Z,68.91
2018-10-18T09:12:29.824Z,68.46
2018-10-18T09:17:23.098Z,68.18
2018-10-18T09:22:16.383Z,68.22
2018-10-18T09:27:10.067Z,66.82
2018-10-18T09:32:03.376Z,67.60
2018-10-18T09:36:56.911Z,65.94
2018-10-18T09:41:50.083Z,65.28
2018-10-18T09:46:43.266Z,64.62
2018-10-18T09:51:36.604Z,64.50
2018-10-18T09:56:30.680Z,64.96
2018-10-18T10:01:29.219Z,64.96
2018-10-18T10:06:22.546Z,63.50
2018-10-18T10:11:15.812Z,62.77
2018-10-18T10:16:09.158Z,62.11
2018-10-18T10:21:02.468Z,62.68
2018-10-18T10:25:56.022Z,61.89
2018-10-18T10:30:49.370Z,61.51
2018-10-18T10:35:42.697Z,60.99
2018-10-18T10:40:35.935Z,60.79
2018-10-18T10:45:29.325Z,60.90
2018-10-18T10:50:22.575Z,60.83
2018-10-18T10:55:15.763Z,60.31
2018-10-18T11:00:09.141Z,61.29
2018-10-18T11:05:02.429Z,62.06
2018-10-18T11:09:55.626Z,61.77
2018-10-18T11:14:48.926Z,62.41
2018-10-18T11:19:42.096Z,62.26
2018-10-18T11:24:35.543Z,62.32
2018-10-18T11:29:28.802Z,62.50
2018-10-18T11:34:22.146Z,61.75
2018-10-18T11:39:15.329Z,61.64
2018-10-18T11:44:13.880Z,61.15
2018-10-18T11:49:07.498Z,61.58
2018-10-18T11:54:02.815Z,61.08
2018-10-18T11:58:58.012Z,60.53
2018-10-18T12:03:54.857Z,60.29
2018-10-18T12:08:52.425Z,59.67
2018-10-18T12:13:56.023Z,58.62
2018-10-18T12:18:49.167Z,59.38
2018-10-18T12:23:42.366Z,59.11
2018-10-18T12:28:35.698Z,58.18
2018-10-18T12:33:29.024Z,58.34
2018-10-18T12:38:22.400Z,56.92
2018-10-18T12:43:15.568Z,57.35
2018-10-18T12:48:08.828Z,56.25
2018-10-18T12:53:02.080Z,57.02
2018-10-18T12:57:55.378Z,57.04
2018-10-18T13:02:49.667Z,56.62
2018-10-18T13:07:43.163Z,55.89
2018-10-18T13:12:37.262Z,57.00
2018-10-18T13:17:30.582Z,57.69
2018-10-18T13:22:26.313Z,55.84
2018-10-18T13:27:20.434Z,56.40
2018-10-18T13:32:14.713Z,56.33
2018-10-18T13:37:07.890Z,55.80
2018-10-18T13:42:01.399Z,55.37
2018-10-18T13:46:55.243Z,55.89
2018-10-18T13:51:50.533Z,55.98
